首页
METAR-TAF:

METAR-TAF

机场 :

Asheboro Regional Airport

阿什伯勒, 北卡罗来纳州, 美国

纬度: 35-39-14N, 经度: 079-53-42W, 海拔: 205米

当前天气观测

该预报发布于15分钟前的09:40 UTC
静风
温度 22°C
湿度 100%
气压 1020 hPa
能見度: 8.0公里
天空无云
轻雾

METAR: KHBI 260940Z AUTO 00000KT 5SM BR CLR 22/22 A3012 RMK AO2 T02160215

时间: 05:55 (09:55 UTC)


TAF: 丢失

超过4000个机场的气象观测和天气预报(METAR&TAF报告)。

可查询的气象台以黄色和红色小点在地图上表示。

将鼠标移到小点上方,可查看气象台名称。

然后点击查看天气观测和预报。

如需切换地图:点击带黑十字的绿色按钮放大地图;点击带横线的绿色按钮缩小地图;或者点击绿色箭头查看邻近地区的地图。


METAR-TAF: